sensor_id;sensor_type;location;lat;lon;timestamp;P1;durP1;ratioP1;P2;durP2;ratioP2
48524;SDS011;34316;51.514;-0.178;2022-11-03T00:00:46;9.68;;;4.10;;
48524;SDS011;34316;51.514;-0.178;2022-11-03T00:02:48;9.48;;;4.13;;
48524;SDS011;34316;51.514;-0.178;2022-11-03T00:04:50;12.10;;;3.45;;
48524;SDS011;34316;51.514;-0.178;2022-11-03T00:06:52;7.82;;;4.05;;
48524;SDS011;34316;51.514;-0.178;2022-11-03T00:08:58;10.43;;;3.97;;
48524;SDS011;34316;51.514;-0.178;2022-11-03T00:11:04;13.18;;;4.50;;
48524;SDS011;34316;51.514;-0.178;2022-11-03T00:13:08;8.50;;;3.88;;
48524;SDS011;34316;51.514;-0.178;2022-11-03T00:15:10;8.07;;;3.97;;
48524;SDS011;34316;51.514;-0.178;2022-11-03T00:17:11;7.93;;;3.78;;
48524;SDS011;34316;51.514;-0.178;2022-11-03T00:19:13;12.68;;;4.53;;
48524;SDS011;34316;51.514;-0.178;2022-11-03T00:21:17;9.85;;;4.75;;
48524;SDS011;34316;51.514;-0.178;2022-11-03T00:23:19;11.55;;;4.32;;
48524;SDS011;34316;51.514;-0.178;2022-11-03T00:25:21;10.85;;;4.72;;
48524;SDS011;34316;51.514;-0.178;2022-11-03T00:27:23;8.88;;;4.38;;
48524;SDS011;34316;51.514;-0.178;2022-11-03T00:29:24;10.32;;;4.22;;
48524;SDS011;34316;51.514;-0.178;2022-11-03T00:31:27;10.63;;;4.53;;
48524;SDS011;34316;51.514;-0.178;2022-11-03T00:33:33;11.20;;;4.32;;
48524;SDS011;34316;51.514;-0.178;2022-11-03T00:35:35;15.52;;;4.13;;
48524;SDS011;34316;51.514;-0.178;2022-11-03T00:37:37;11.18;;;4.88;;
48524;SDS011;34316;51.514;-0.178;2022-11-03T00:39:38;10.13;;;4.55;;
48524;SDS011;34316;51.514;-0.178;2022-11-03T00:41:40;11.63;;;4.28;;
48524;SDS011;34316;51.514;-0.178;2022-11-03T00:43:42;7.63;;;4.43;;
48524;SDS011;34316;51.514;-0.178;2022-11-03T00:45:43;12.90;;;4.60;;
48524;SDS011;34316;51.514;-0.178;2022-11-03T00:47:45;9.27;;;4.53;;
48524;SDS011;34316;51.514;-0.178;2022-11-03T00:50:05;9.73;;;4.85;;
48524;SDS011;34316;51.514;-0.178;2022-11-03T00:52:07;12.30;;;5.07;;
48524;SDS011;34316;51.514;-0.178;2022-11-03T00:54:08;8.93;;;4.93;;
48524;SDS011;34316;51.514;-0.178;2022-11-03T00:56:11;12.43;;;5.00;;
48524;SDS011;34316;51.514;-0.178;2022-11-03T00:58:14;11.75;;;5.72;;
48524;SDS011;34316;51.514;-0.178;2022-11-03T01:00:16;12.13;;;5.15;;
48524;SDS011;34316;51.514;-0.178;2022-11-03T01:02:17;12.80;;;5.32;;
48524;SDS011;34316;51.514;-0.178;2022-11-03T01:04:19;13.57;;;6.13;;
48524;SDS011;34316;51.514;-0.178;2022-11-03T01:06:40;20.27;;;5.72;;
48524;SDS011;34316;51.514;-0.178;2022-11-03T01:08:52;10.35;;;5.63;;
48524;SDS011;34316;51.514;-0.178;2022-11-03T01:10:54;12.63;;;5.88;;
48524;SDS011;34316;51.514;-0.178;2022-11-03T01:13:15;22.45;;;6.30;;
48524;SDS011;34316;51.514;-0.178;2022-11-03T01:15:16;11.18;;;5.50;;
48524;SDS011;34316;51.514;-0.178;2022-11-03T01:17:22;11.55;;;5.60;;
48524;SDS011;34316;51.514;-0.178;2022-11-03T01:19:25;16.00;;;5.68;;
48524;SDS011;34316;51.514;-0.178;2022-11-03T01:21:28;16.05;;;5.35;;
48524;SDS011;34316;51.514;-0.178;2022-11-03T01:23:29;13.05;;;5.72;;
48524;SDS011;34316;51.514;-0.178;2022-11-03T01:25:31;11.60;;;5.38;;
48524;SDS011;34316;51.514;-0.178;2022-11-03T01:27:33;14.18;;;5.75;;
48524;SDS011;34316;51.514;-0.178;2022-11-03T01:29:35;10.13;;;5.30;;
48524;SDS011;34316;51.514;-0.178;2022-11-03T01:31:36;12.25;;;5.53;;
48524;SDS011;34316;51.514;-0.178;2022-11-03T01:33:38;10.73;;;5.35;;
48524;SDS011;34316;51.514;-0.178;2022-11-03T01:35:40;11.05;;;5.20;;
48524;SDS011;34316;51.514;-0.178;2022-11-03T01:37:42;13.32;;;5.88;;
48524;SDS011;34316;51.514;-0.178;2022-11-03T01:39:44;8.60;;;4.68;;
48524;SDS011;34316;51.514;-0.178;2022-11-03T01:41:46;16.27;;;5.45;;
48524;SDS011;34316;51.514;-0.178;2022-11-03T01:43:50;15.50;;;6.40;;
48524;SDS011;34316;51.514;-0.178;2022-11-03T01:48:18;13.00;;;5.75;;
48524;SDS011;34316;51.514;-0.178;2022-11-03T01:50:20;13.45;;;6.00;;
48524;SDS011;34316;51.514;-0.178;2022-11-03T01:52:41;12.38;;;6.90;;
48524;SDS011;34316;51.514;-0.178;2022-11-03T01:54:50;12.40;;;6.32;;
48524;SDS011;34316;51.514;-0.178;2022-11-03T01:56:57;12.23;;;6.78;;
48524;SDS011;34316;51.514;-0.178;2022-11-03T01:59:00;12.55;;;7.38;;
48524;SDS011;34316;51.514;-0.178;2022-11-03T02:01:02;14.95;;;7.80;;
48524;SDS011;34316;51.514;-0.178;2022-11-03T02:03:04;16.40;;;8.43;;
48524;SDS011;34316;51.514;-0.178;2022-11-03T02:05:06;16.48;;;8.35;;
48524;SDS011;34316;51.514;-0.178;2022-11-03T02:09:22;21.27;;;8.73;;
48524;SDS011;34316;51.514;-0.178;2022-11-03T02:11:24;12.70;;;8.18;;
48524;SDS011;34316;51.514;-0.178;2022-11-03T02:13:45;17.80;;;9.52;;
48524;SDS011;34316;51.514;-0.178;2022-11-03T02:15:51;17.25;;;9.77;;
48524;SDS011;34316;51.514;-0.178;2022-11-03T02:17:54;15.63;;;9.30;;
48524;SDS011;34316;51.514;-0.178;2022-11-03T02:19:57;18.63;;;8.70;;
48524;SDS011;34316;51.514;-0.178;2022-11-03T02:22:07;20.25;;;9.70;;
48524;SDS011;34316;51.514;-0.178;2022-11-03T02:24:30;20.27;;;9.15;;
48524;SDS011;34316;51.514;-0.178;2022-11-03T02:26:40;18.45;;;9.13;;
48524;SDS011;34316;51.514;-0.178;2022-11-03T02:28:44;18.20;;;9.05;;
48524;SDS011;34316;51.514;-0.178;2022-11-03T02:30:49;20.73;;;10.10;;
48524;SDS011;34316;51.514;-0.178;2022-11-03T02:32:56;16.77;;;9.40;;
48524;SDS011;34316;51.514;-0.178;2022-11-03T02:37:11;14.95;;;9.00;;
48524;SDS011;34316;51.514;-0.178;2022-11-03T02:39:21;15.88;;;9.27;;
48524;SDS011;34316;51.514;-0.178;2022-11-03T02:41:26;16.52;;;8.38;;
48524;SDS011;34316;51.514;-0.178;2022-11-03T02:43:28;17.35;;;8.55;;
48524;SDS011;34316;51.514;-0.178;2022-11-03T02:45:30;15.10;;;7.63;;
48524;SDS011;34316;51.514;-0.178;2022-11-03T02:47:32;14.82;;;8.00;;
48524;SDS011;34316;51.514;-0.178;2022-11-03T02:49:39;21.57;;;8.50;;
48524;SDS011;34316;51.514;-0.178;2022-11-03T02:51:48;17.20;;;8.98;;
48524;SDS011;34316;51.514;-0.178;2022-11-03T02:54:13;16.80;;;8.38;;
48524;SDS011;34316;51.514;-0.178;2022-11-03T02:56:17;16.42;;;8.18;;
48524;SDS011;34316;51.514;-0.178;2022-11-03T02:58:34;15.82;;;8.85;;
48524;SDS011;34316;51.514;-0.178;2022-11-03T03:01:02;16.33;;;8.60;;
48524;SDS011;34316;51.514;-0.178;2022-11-03T03:03:24;14.02;;;8.75;;
48524;SDS011;34316;51.514;-0.178;2022-11-03T03:05:29;15.60;;;9.00;;
48524;SDS011;34316;51.514;-0.178;2022-11-03T03:07:36;11.23;;;7.97;;
48524;SDS011;34316;51.514;-0.178;2022-11-03T03:09:40;14.45;;;7.22;;
48524;SDS011;34316;51.514;-0.178;2022-11-03T03:11:46;12.65;;;7.10;;
48524;SDS011;34316;51.514;-0.178;2022-11-03T03:16:05;13.88;;;6.68;;
48524;SDS011;34316;51.514;-0.178;2022-11-03T03:22:46;16.63;;;7.35;;
48524;SDS011;34316;51.514;-0.178;2022-11-03T03:25:02;15.75;;;7.72;;
48524;SDS011;34316;51.514;-0.178;2022-11-03T03:27:10;15.35;;;8.20;;
48524;SDS011;34316;51.514;-0.178;2022-11-03T03:31:51;15.23;;;7.60;;
48524;SDS011;34316;51.514;-0.178;2022-11-03T03:33:55;14.32;;;8.10;;
48524;SDS011;34316;51.514;-0.178;2022-11-03T03:36:06;16.00;;;8.00;;
48524;SDS011;34316;51.514;-0.178;2022-11-03T03:38:12;14.15;;;7.88;;
48524;SDS011;34316;51.514;-0.178;2022-11-03T03:40:31;15.48;;;8.57;;
48524;SDS011;34316;51.514;-0.178;2022-11-03T03:42:38;17.77;;;8.40;;
48524;SDS011;34316;51.514;-0.178;2022-11-03T03:44:41;19.38;;;7.82;;
48524;SDS011;34316;51.514;-0.178;2022-11-03T03:46:45;18.02;;;8.35;;
48524;SDS011;34316;51.514;-0.178;2022-11-03T03:48:49;19.85;;;8.65;;
48524;SDS011;34316;51.514;-0.178;2022-11-03T03:50:51;16.83;;;8.82;;
48524;SDS011;34316;51.514;-0.178;2022-11-03T03:52:56;19.85;;;8.95;;
48524;SDS011;34316;51.514;-0.178;2022-11-03T03:54:58;20.77;;;8.85;;
48524;SDS011;34316;51.514;-0.178;2022-11-03T03:57:01;16.35;;;9.05;;
48524;SDS011;34316;51.514;-0.178;2022-11-03T03:59:04;20.38;;;8.82;;
48524;SDS011;34316;51.514;-0.178;2022-11-03T04:01:08;21.27;;;9.15;;
48524;SDS011;34316;51.514;-0.178;2022-11-03T04:03:13;16.08;;;8.32;;
48524;SDS011;34316;51.514;-0.178;2022-11-03T04:05:20;17.25;;;8.88;;
48524;SDS011;34316;51.514;-0.178;2022-11-03T04:07:21;16.52;;;9.20;;
48524;SDS011;34316;51.514;-0.178;2022-11-03T04:09:44;17.08;;;9.27;;
48524;SDS011;34316;51.514;-0.178;2022-11-03T04:11:48;14.63;;;9.38;;
48524;SDS011;34316;51.514;-0.178;2022-11-03T04:14:08;15.02;;;7.97;;
48524;SDS011;34316;51.514;-0.178;2022-11-03T04:16:29;15.63;;;8.73;;
48524;SDS011;34316;51.514;-0.178;2022-11-03T04:18:49;18.52;;;8.77;;
48524;SDS011;34316;51.514;-0.178;2022-11-03T04:21:10;18.63;;;9.10;;
48524;SDS011;34316;51.514;-0.178;2022-11-03T04:23:32;17.02;;;9.75;;
48524;SDS011;34316;51.514;-0.178;2022-11-03T04:25:34;17.20;;;8.35;;
48524;SDS011;34316;51.514;-0.178;2022-11-03T04:27:35;18.42;;;8.90;;
48524;SDS011;34316;51.514;-0.178;2022-11-03T04:29:38;15.80;;;8.38;;
48524;SDS011;34316;51.514;-0.178;2022-11-03T04:31:40;17.05;;;8.25;;
48524;SDS011;34316;51.514;-0.178;2022-11-03T04:33:42;17.90;;;9.00;;
48524;SDS011;34316;51.514;-0.178;2022-11-03T04:35:44;24.23;;;8.82;;
48524;SDS011;34316;51.514;-0.178;2022-11-03T04:37:47;24.63;;;9.48;;
48524;SDS011;34316;51.514;-0.178;2022-11-03T04:39:57;17.92;;;8.93;;
48524;SDS011;34316;51.514;-0.178;2022-11-03T04:42:01;18.80;;;9.43;;
48524;SDS011;34316;51.514;-0.178;2022-11-03T04:44:03;18.92;;;8.68;;
48524;SDS011;34316;51.514;-0.178;2022-11-03T04:46:09;19.45;;;9.60;;
48524;SDS011;34316;51.514;-0.178;2022-11-03T04:48:13;18.08;;;9.27;;
48524;SDS011;34316;51.514;-0.178;2022-11-03T04:50:24;18.63;;;9.73;;
48524;SDS011;34316;51.514;-0.178;2022-11-03T04:52:27;16.33;;;9.60;;
48524;SDS011;34316;51.514;-0.178;2022-11-03T04:54:29;18.63;;;10.20;;
48524;SDS011;34316;51.514;-0.178;2022-11-03T04:56:31;25.02;;;10.18;;
48524;SDS011;34316;51.514;-0.178;2022-11-03T04:58:34;22.25;;;10.40;;
48524;SDS011;34316;51.514;-0.178;2022-11-03T05:00:36;20.95;;;9.73;;
48524;SDS011;34316;51.514;-0.178;2022-11-03T05:02:38;20.52;;;10.23;;
48524;SDS011;34316;51.514;-0.178;2022-11-03T05:04:39;17.52;;;9.38;;
48524;SDS011;34316;51.514;-0.178;2022-11-03T05:06:49;20.17;;;9.90;;
48524;SDS011;34316;51.514;-0.178;2022-11-03T05:09:06;21.75;;;10.75;;
48524;SDS011;34316;51.514;-0.178;2022-11-03T05:11:18;17.17;;;10.13;;
48524;SDS011;34316;51.514;-0.178;2022-11-03T05:13:23;18.50;;;10.43;;
48524;SDS011;34316;51.514;-0.178;2022-11-03T05:17:37;22.58;;;11.82;;
48524;SDS011;34316;51.514;-0.178;2022-11-03T05:19:39;20.58;;;12.30;;
48524;SDS011;34316;51.514;-0.178;2022-11-03T05:21:42;26.80;;;12.43;;
48524;SDS011;34316;51.514;-0.178;2022-11-03T05:23:45;23.23;;;12.52;;
48524;SDS011;34316;51.514;-0.178;2022-11-03T05:25:52;22.08;;;11.52;;
48524;SDS011;34316;51.514;-0.178;2022-11-03T05:27:54;21.75;;;11.25;;
48524;SDS011;34316;51.514;-0.178;2022-11-03T05:29:56;23.40;;;11.73;;
48524;SDS011;34316;51.514;-0.178;2022-11-03T05:32:01;21.45;;;11.43;;
48524;SDS011;34316;51.514;-0.178;2022-11-03T05:34:20;23.85;;;11.77;;
48524;SDS011;34316;51.514;-0.178;2022-11-03T05:36:23;26.35;;;12.18;;
48524;SDS011;34316;51.514;-0.178;2022-11-03T05:38:28;28.67;;;12.07;;
48524;SDS011;34316;51.514;-0.178;2022-11-03T05:40:32;26.27;;;11.02;;
48524;SDS011;34316;51.514;-0.178;2022-11-03T05:42:34;24.25;;;12.68;;
48524;SDS011;34316;51.514;-0.178;2022-11-03T05:44:38;23.90;;;11.45;;
48524;SDS011;34316;51.514;-0.178;2022-11-03T05:46:40;26.33;;;12.18;;
48524;SDS011;34316;51.514;-0.178;2022-11-03T05:48:42;20.50;;;11.95;;
48524;SDS011;34316;51.514;-0.178;2022-11-03T05:50:45;26.05;;;13.18;;
48524;SDS011;34316;51.514;-0.178;2022-11-03T05:52:47;27.75;;;12.00;;
48524;SDS011;34316;51.514;-0.178;2022-11-03T05:54:50;20.33;;;11.93;;
48524;SDS011;34316;51.514;-0.178;2022-11-03T05:56:52;24.08;;;12.27;;
48524;SDS011;34316;51.514;-0.178;2022-11-03T05:58:56;33.80;;;17.95;;
48524;SDS011;34316;51.514;-0.178;2022-11-03T06:00:59;40.30;;;21.20;;
48524;SDS011;34316;51.514;-0.178;2022-11-03T06:05:22;31.92;;;18.20;;
48524;SDS011;34316;51.514;-0.178;2022-11-03T06:07:28;30.58;;;16.73;;
48524;SDS011;34316;51.514;-0.178;2022-11-03T06:09:30;34.10;;;17.42;;
48524;SDS011;34316;51.514;-0.178;2022-11-03T06:11:36;33.45;;;17.48;;
48524;SDS011;34316;51.514;-0.178;2022-11-03T06:13:38;33.40;;;16.90;;
48524;SDS011;34316;51.514;-0.178;2022-11-03T06:15:41;33.25;;;15.23;;
48524;SDS011;34316;51.514;-0.178;2022-11-03T06:17:43;29.52;;;16.55;;
48524;SDS011;34316;51.514;-0.178;2022-11-03T06:19:45;28.48;;;14.65;;
48524;SDS011;34316;51.514;-0.178;2022-11-03T06:21:51;21.98;;;13.32;;
48524;SDS011;34316;51.514;-0.178;2022-11-03T06:23:55;24.98;;;11.40;;
48524;SDS011;34316;51.514;-0.178;2022-11-03T06:25:56;24.77;;;13.30;;
48524;SDS011;34316;51.514;-0.178;2022-11-03T06:28:00;30.50;;;11.65;;
48524;SDS011;34316;51.514;-0.178;2022-11-03T06:30:20;28.30;;;15.65;;
48524;SDS011;34316;51.514;-0.178;2022-11-03T06:32:26;32.78;;;20.30;;
48524;SDS011;34316;51.514;-0.178;2022-11-03T06:34:32;36.35;;;22.05;;
48524;SDS011;34316;51.514;-0.178;2022-11-03T06:36:38;31.85;;;21.73;;
48524;SDS011;34316;51.514;-0.178;2022-11-03T06:38:40;37.08;;;21.75;;
48524;SDS011;34316;51.514;-0.178;2022-11-03T06:40:42;42.15;;;20.65;;
48524;SDS011;34316;51.514;-0.178;2022-11-03T06:42:43;32.65;;;19.38;;
48524;SDS011;34316;51.514;-0.178;2022-11-03T06:44:46;30.02;;;19.08;;
48524;SDS011;34316;51.514;-0.178;2022-11-03T06:46:50;28.13;;;16.33;;
48524;SDS011;34316;51.514;-0.178;2022-11-03T06:48:59;32.17;;;17.73;;
48524;SDS011;34316;51.514;-0.178;2022-11-03T06:51:02;35.65;;;17.42;;
48524;SDS011;34316;51.514;-0.178;2022-11-03T06:53:04;30.25;;;18.42;;
48524;SDS011;34316;51.514;-0.178;2022-11-03T06:57:15;31.48;;;17.80;;
48524;SDS011;34316;51.514;-0.178;2022-11-03T06:59:18;36.38;;;17.80;;
48524;SDS011;34316;51.514;-0.178;2022-11-03T07:01:21;33.53;;;18.02;;
48524;SDS011;34316;51.514;-0.178;2022-11-03T07:03:28;32.08;;;17.65;;
48524;SDS011;34316;51.514;-0.178;2022-11-03T07:05:31;30.98;;;18.17;;
48524;SDS011;34316;51.514;-0.178;2022-11-03T07:07:33;34.42;;;17.98;;
48524;SDS011;34316;51.514;-0.178;2022-11-03T07:09:34;34.40;;;17.67;;
48524;SDS011;34316;51.514;-0.178;2022-11-03T07:11:46;34.88;;;17.27;;
48524;SDS011;34316;51.514;-0.178;2022-11-03T07:13:56;38.38;;;17.75;;
48524;SDS011;34316;51.514;-0.178;2022-11-03T07:15:59;34.90;;;17.17;;
48524;SDS011;34316;51.514;-0.178;2022-11-03T07:18:00;32.97;;;16.85;;
48524;SDS011;34316;51.514;-0.178;2022-11-03T07:20:04;38.50;;;16.77;;
48524;SDS011;34316;51.514;-0.178;2022-11-03T07:24:23;36.83;;;18.08;;
48524;SDS011;34316;51.514;-0.178;2022-11-03T07:26:27;29.40;;;16.65;;
48524;SDS011;34316;51.514;-0.178;2022-11-03T07:28:34;32.58;;;16.30;;
48524;SDS011;34316;51.514;-0.178;2022-11-03T07:30:36;33.63;;;15.80;;
48524;SDS011;34316;51.514;-0.178;2022-11-03T07:32:38;24.73;;;16.20;;
48524;SDS011;34316;51.514;-0.178;2022-11-03T07:34:40;26.17;;;15.05;;
48524;SDS011;34316;51.514;-0.178;2022-11-03T07:36:42;35.47;;;14.90;;
48524;SDS011;34316;51.514;-0.178;2022-11-03T07:38:45;28.80;;;13.73;;
48524;SDS011;34316;51.514;-0.178;2022-11-03T07:40:49;28.48;;;14.38;;
48524;SDS011;34316;51.514;-0.178;2022-11-03T07:42:51;23.65;;;13.68;;
48524;SDS011;34316;51.514;-0.178;2022-11-03T07:44:57;30.75;;;14.80;;
48524;SDS011;34316;51.514;-0.178;2022-11-03T07:46:59;21.95;;;14.30;;
48524;SDS011;34316;51.514;-0.178;2022-11-03T07:49:00;27.45;;;14.00;;
48524;SDS011;34316;51.514;-0.178;2022-11-03T07:51:19;24.77;;;14.07;;
48524;SDS011;34316;51.514;-0.178;2022-11-03T07:55:32;25.88;;;14.43;;
48524;SDS011;34316;51.514;-0.178;2022-11-03T07:57:34;23.00;;;13.82;;
48524;SDS011;34316;51.514;-0.178;2022-11-03T07:59:37;21.67;;;13.35;;
48524;SDS011;34316;51.514;-0.178;2022-11-03T08:01:44;25.63;;;15.10;;
48524;SDS011;34316;51.514;-0.178;2022-11-03T08:03:52;22.98;;;13.93;;
48524;SDS011;34316;51.514;-0.178;2022-11-03T08:05:57;28.80;;;14.98;;
48524;SDS011;34316;51.514;-0.178;2022-11-03T08:07:59;30.63;;;16.42;;
48524;SDS011;34316;51.514;-0.178;2022-11-03T08:10:00;26.13;;;15.60;;
48524;SDS011;34316;51.514;-0.178;2022-11-03T08:12:02;24.30;;;14.25;;
48524;SDS011;34316;51.514;-0.178;2022-11-03T08:14:04;29.42;;;14.20;;
48524;SDS011;34316;51.514;-0.178;2022-11-03T08:16:05;24.48;;;14.23;;
48524;SDS011;34316;51.514;-0.178;2022-11-03T08:18:07;20.55;;;13.45;;
48524;SDS011;34316;51.514;-0.178;2022-11-03T08:20:09;28.70;;;16.00;;
48524;SDS011;34316;51.514;-0.178;2022-11-03T08:22:11;24.42;;;14.13;;
48524;SDS011;34316;51.514;-0.178;2022-11-03T08:24:13;29.58;;;15.27;;
48524;SDS011;34316;51.514;-0.178;2022-11-03T08:26:14;40.50;;;17.38;;
48524;SDS011;34316;51.514;-0.178;2022-11-03T08:28:16;34.03;;;16.23;;
48524;SDS011;34316;51.514;-0.178;2022-11-03T08:30:18;38.28;;;17.65;;
48524;SDS011;34316;51.514;-0.178;2022-11-03T08:32:19;26.98;;;14.88;;
48524;SDS011;34316;51.514;-0.178;2022-11-03T08:34:21;31.13;;;16.50;;
48524;SDS011;34316;51.514;-0.178;2022-11-03T08:36:23;24.05;;;14.82;;
48524;SDS011;34316;51.514;-0.178;2022-11-03T08:38:24;24.95;;;14.07;;
48524;SDS011;34316;51.514;-0.178;2022-11-03T08:40:26;29.77;;;15.27;;
48524;SDS011;34316;51.514;-0.178;2022-11-03T08:42:27;27.60;;;15.63;;
48524;SDS011;34316;51.514;-0.178;2022-11-03T08:44:29;29.33;;;14.85;;
48524;SDS011;34316;51.514;-0.178;2022-11-03T08:46:31;26.00;;;16.20;;
48524;SDS011;34316;51.514;-0.178;2022-11-03T08:48:32;27.50;;;13.80;;
48524;SDS011;34316;51.514;-0.178;2022-11-03T08:50:34;22.02;;;12.80;;
48524;SDS011;34316;51.514;-0.178;2022-11-03T08:52:36;27.20;;;14.93;;
48524;SDS011;34316;51.514;-0.178;2022-11-03T08:54:37;25.73;;;12.10;;
48524;SDS011;34316;51.514;-0.178;2022-11-03T08:56:39;22.73;;;12.48;;
48524;SDS011;34316;51.514;-0.178;2022-11-03T08:58:41;29.20;;;14.30;;
48524;SDS011;34316;51.514;-0.178;2022-11-03T09:00:44;26.52;;;13.60;;
48524;SDS011;34316;51.514;-0.178;2022-11-03T09:02:45;25.63;;;13.60;;
48524;SDS011;34316;51.514;-0.178;2022-11-03T09:04:47;20.10;;;12.65;;
48524;SDS011;34316;51.514;-0.178;2022-11-03T09:06:49;30.55;;;15.60;;
48524;SDS011;34316;51.514;-0.178;2022-11-03T09:08:50;22.17;;;11.93;;
48524;SDS011;34316;51.514;-0.178;2022-11-03T09:11:12;20.65;;;11.48;;
48524;SDS011;34316;51.514;-0.178;2022-11-03T09:13:13;22.02;;;12.02;;
48524;SDS011;34316;51.514;-0.178;2022-11-03T09:15:15;25.08;;;13.40;;
48524;SDS011;34316;51.514;-0.178;2022-11-03T09:17:17;27.88;;;12.93;;
48524;SDS011;34316;51.514;-0.178;2022-11-03T09:19:19;23.45;;;12.50;;
48524;SDS011;34316;51.514;-0.178;2022-11-03T09:21:20;27.27;;;12.60;;
48524;SDS011;34316;51.514;-0.178;2022-11-03T09:23:22;22.48;;;13.25;;
48524;SDS011;34316;51.514;-0.178;2022-11-03T09:25:24;24.60;;;12.50;;
48524;SDS011;34316;51.514;-0.178;2022-11-03T09:27:25;24.42;;;12.60;;
48524;SDS011;34316;51.514;-0.178;2022-11-03T09:29:27;20.85;;;11.95;;
48524;SDS011;34316;51.514;-0.178;2022-11-03T09:31:45;29.70;;;13.15;;
48524;SDS011;34316;51.514;-0.178;2022-11-03T09:33:47;18.55;;;11.30;;
48524;SDS011;34316;51.514;-0.178;2022-11-03T09:35:49;25.15;;;11.10;;
48524;SDS011;34316;51.514;-0.178;2022-11-03T09:37:51;21.58;;;10.95;;
48524;SDS011;34316;51.514;-0.178;2022-11-03T09:39:52;25.35;;;10.80;;
48524;SDS011;34316;51.514;-0.178;2022-11-03T09:41:54;24.77;;;10.98;;
48524;SDS011;34316;51.514;-0.178;2022-11-03T09:43:59;130.35;;;19.70;;
48524;SDS011;34316;51.514;-0.178;2022-11-03T09:46:01;88.60;;;15.85;;
48524;SDS011;34316;51.514;-0.178;2022-11-03T09:48:03;30.50;;;11.65;;
48524;SDS011;34316;51.514;-0.178;2022-11-03T09:50:09;71.95;;;15.50;;
48524;SDS011;34316;51.514;-0.178;2022-11-03T09:52:14;20.52;;;10.90;;
48524;SDS011;34316;51.514;-0.178;2022-11-03T09:54:20;17.20;;;10.13;;
48524;SDS011;34316;51.514;-0.178;2022-11-03T09:56:23;35.65;;;13.32;;
48524;SDS011;34316;51.514;-0.178;2022-11-03T09:58:25;21.38;;;11.52;;
48524;SDS011;34316;51.514;-0.178;2022-11-03T10:00:27;30.80;;;13.57;;
48524;SDS011;34316;51.514;-0.178;2022-11-03T10:02:30;17.70;;;9.45;;
48524;SDS011;34316;51.514;-0.178;2022-11-03T10:04:32;16.02;;;9.27;;
48524;SDS011;34316;51.514;-0.178;2022-11-03T10:06:34;19.65;;;9.50;;
48524;SDS011;34316;51.514;-0.178;2022-11-03T10:08:36;19.05;;;9.27;;
48524;SDS011;34316;51.514;-0.178;2022-11-03T10:10:39;20.55;;;9.80;;
48524;SDS011;34316;51.514;-0.178;2022-11-03T10:12:41;27.50;;;9.93;;
48524;SDS011;34316;51.514;-0.178;2022-11-03T10:14:43;21.70;;;10.02;;
48524;SDS011;34316;51.514;-0.178;2022-11-03T10:16:52;15.57;;;9.67;;
48524;SDS011;34316;51.514;-0.178;2022-11-03T10:18:57;18.50;;;11.43;;
48524;SDS011;34316;51.514;-0.178;2022-11-03T10:21:03;27.48;;;12.43;;
48524;SDS011;34316;51.514;-0.178;2022-11-03T10:23:07;26.90;;;11.57;;
48524;SDS011;34316;51.514;-0.178;2022-11-03T10:25:25;22.20;;;11.10;;
48524;SDS011;34316;51.514;-0.178;2022-11-03T10:27:37;23.52;;;9.07;;
48524;SDS011;34316;51.514;-0.178;2022-11-03T10:29:38;25.60;;;9.95;;
48524;SDS011;34316;51.514;-0.178;2022-11-03T10:31:44;18.42;;;9.00;;
48524;SDS011;34316;51.514;-0.178;2022-11-03T10:33:53;21.25;;;8.75;;
48524;SDS011;34316;51.514;-0.178;2022-11-03T10:35:59;19.70;;;7.30;;
48524;SDS011;34316;51.514;-0.178;2022-11-03T10:40:32;18.77;;;7.38;;
48524;SDS011;34316;51.514;-0.178;2022-11-03T10:42:56;12.95;;;6.13;;
48524;SDS011;34316;51.514;-0.178;2022-11-03T10:45:10;18.55;;;7.57;;
48524;SDS011;34316;51.514;-0.178;2022-11-03T10:47:31;32.15;;;13.93;;
48524;SDS011;34316;51.514;-0.178;2022-11-03T10:49:34;17.70;;;8.75;;
48524;SDS011;34316;51.514;-0.178;2022-11-03T10:51:44;19.33;;;8.05;;
48524;SDS011;34316;51.514;-0.178;2022-11-03T10:53:48;15.38;;;7.57;;
48524;SDS011;34316;51.514;-0.178;2022-11-03T10:55:49;13.32;;;6.43;;
48524;SDS011;34316;51.514;-0.178;2022-11-03T10:57:51;15.75;;;6.68;;
48524;SDS011;34316;51.514;-0.178;2022-11-03T10:59:56;20.27;;;7.80;;
48524;SDS011;34316;51.514;-0.178;2022-11-03T11:01:58;20.70;;;7.97;;
48524;SDS011;34316;51.514;-0.178;2022-11-03T11:04:02;13.30;;;7.95;;
48524;SDS011;34316;51.514;-0.178;2022-11-03T11:06:04;16.90;;;7.78;;
48524;SDS011;34316;51.514;-0.178;2022-11-03T11:08:07;15.73;;;7.97;;
48524;SDS011;34316;51.514;-0.178;2022-11-03T11:28:28;12.57;;;6.25;;
48524;SDS011;34316;51.514;-0.178;2022-11-03T11:34:44;11.85;;;5.30;;
48524;SDS011;34316;51.514;-0.178;2022-11-03T11:37:31;20.83;;;5.28;;
48524;SDS011;34316;51.514;-0.178;2022-11-03T11:41:15;14.32;;;5.05;;
48524;SDS011;34316;51.514;-0.178;2022-11-03T11:48:11;16.63;;;5.43;;
48524;SDS011;34316;51.514;-0.178;2022-11-03T11:50:22;18.55;;;4.80;;
48524;SDS011;34316;51.514;-0.178;2022-11-03T11:52:25;10.95;;;4.63;;
48524;SDS011;34316;51.514;-0.178;2022-11-03T11:54:27;15.63;;;5.30;;
48524;SDS011;34316;51.514;-0.178;2022-11-03T11:56:29;10.75;;;3.95;;
48524;SDS011;34316;51.514;-0.178;2022-11-03T12:00:48;19.20;;;4.95;;
48524;SDS011;34316;51.514;-0.178;2022-11-03T12:02:57;17.20;;;6.07;;
48524;SDS011;34316;51.514;-0.178;2022-11-03T12:05:00;19.60;;;5.70;;
48524;SDS011;34316;51.514;-0.178;2022-11-03T12:07:03;18.67;;;6.07;;
48524;SDS011;34316;51.514;-0.178;2022-11-03T12:09:06;10.55;;;5.20;;
48524;SDS011;34316;51.514;-0.178;2022-11-03T12:11:13;13.48;;;5.72;;
48524;SDS011;34316;51.514;-0.178;2022-11-03T12:15:54;15.85;;;5.43;;
48524;SDS011;34316;51.514;-0.178;2022-11-03T12:17:56;22.30;;;5.28;;
48524;SDS011;34316;51.514;-0.178;2022-11-03T12:19:58;11.90;;;5.13;;
48524;SDS011;34316;51.514;-0.178;2022-11-03T12:22:00;13.25;;;5.40;;
48524;SDS011;34316;51.514;-0.178;2022-11-03T12:28:29;14.80;;;4.70;;
48524;SDS011;34316;51.514;-0.178;2022-11-03T12:30:35;12.80;;;4.00;;
48524;SDS011;34316;51.514;-0.178;2022-11-03T12:32:40;16.30;;;4.55;;
48524;SDS011;34316;51.514;-0.178;2022-11-03T12:34:42;14.93;;;4.57;;
48524;SDS011;34316;51.514;-0.178;2022-11-03T12:36:44;10.48;;;4.15;;
48524;SDS011;34316;51.514;-0.178;2022-11-03T12:38:46;12.65;;;4.70;;
48524;SDS011;34316;51.514;-0.178;2022-11-03T12:40:47;14.60;;;4.57;;
48524;SDS011;34316;51.514;-0.178;2022-11-03T12:42:49;15.85;;;4.50;;
48524;SDS011;34316;51.514;-0.178;2022-11-03T12:44:51;13.93;;;4.45;;
48524;SDS011;34316;51.514;-0.178;2022-11-03T12:46:53;15.23;;;4.43;;
48524;SDS011;34316;51.514;-0.178;2022-11-03T12:48:54;13.85;;;5.00;;
48524;SDS011;34316;51.514;-0.178;2022-11-03T12:50:56;13.73;;;4.63;;
48524;SDS011;34316;51.514;-0.178;2022-11-03T12:52:58;11.80;;;5.00;;
48524;SDS011;34316;51.514;-0.178;2022-11-03T12:55:00;13.30;;;5.00;;
48524;SDS011;34316;51.514;-0.178;2022-11-03T12:57:02;17.45;;;5.13;;
48524;SDS011;34316;51.514;-0.178;2022-11-03T12:59:04;16.27;;;5.53;;
48524;SDS011;34316;51.514;-0.178;2022-11-03T13:01:05;23.85;;;8.18;;
48524;SDS011;34316;51.514;-0.178;2022-11-03T13:03:07;15.95;;;6.30;;
48524;SDS011;34316;51.514;-0.178;2022-11-03T13:05:09;16.58;;;5.13;;
48524;SDS011;34316;51.514;-0.178;2022-11-03T13:07:15;18.00;;;5.80;;
48524;SDS011;34316;51.514;-0.178;2022-11-03T13:09:25;20.17;;;6.40;;
48524;SDS011;34316;51.514;-0.178;2022-11-03T13:11:30;15.48;;;5.40;;
48524;SDS011;34316;51.514;-0.178;2022-11-03T13:13:51;14.20;;;5.30;;